Terminal Aerodrome Forecast
Issued by NWS Shreveport, LA

Home | Current Version | Previous Version | Text Only | Print | Product List | Glossary On
Versions: 1 2 3 4 5 6 7 8 9 10 11 12 13 14 15 16
000
FTUS44 KSHV 300538
TAFGGG
TAF
KGGG 300538Z 3006/0106 17006KT P6SM BKN180 BKN250
     FM301000 18006KT P6SM VCTS SCT050CB SCT180 BKN250
     FM301400 23008KT P6SM VCTS SCT045CB SCT100 SCT250
     FM010000 20007KT P6SM SCT050 BKN250=

USA.gov is the U.S. government's official web portal to all federal, state and local government web resources and services.